sensor_id;sensor_type;location;lat;lon;timestamp;temperature;humidity
8715;DHT22;4394;51.208;8.904;2023-05-07T00:01:27;14.90;99.90
8715;DHT22;4394;51.208;8.904;2023-05-07T00:04:15;15.00;99.90
8715;DHT22;4394;51.208;8.904;2023-05-07T00:07:03;15.00;99.90
8715;DHT22;4394;51.208;8.904;2023-05-07T00:09:51;15.00;99.90
8715;DHT22;4394;51.208;8.904;2023-05-07T00:12:40;15.00;99.90
8715;DHT22;4394;51.208;8.904;2023-05-07T00:15:28;14.90;99.90
8715;DHT22;4394;51.208;8.904;2023-05-07T00:18:16;15.00;99.90
8715;DHT22;4394;51.208;8.904;2023-05-07T00:21:07;14.90;99.90
8715;DHT22;4394;51.208;8.904;2023-05-07T00:23:55;14.90;99.90
8715;DHT22;4394;51.208;8.904;2023-05-07T00:26:43;15.00;99.90
8715;DHT22;4394;51.208;8.904;2023-05-07T00:29:33;15.00;99.90
8715;DHT22;4394;51.208;8.904;2023-05-07T00:32:21;14.90;99.90
8715;DHT22;4394;51.208;8.904;2023-05-07T00:35:09;14.90;99.90
8715;DHT22;4394;51.208;8.904;2023-05-07T00:37:57;14.90;99.90
8715;DHT22;4394;51.208;8.904;2023-05-07T00:40:46;14.90;99.90
8715;DHT22;4394;51.208;8.904;2023-05-07T00:43:34;14.90;99.90
8715;DHT22;4394;51.208;8.904;2023-05-07T00:46:23;14.90;99.90
8715;DHT22;4394;51.208;8.904;2023-05-07T00:49:12;14.90;99.90
8715;DHT22;4394;51.208;8.904;2023-05-07T00:52:01;14.90;99.90
8715;DHT22;4394;51.208;8.904;2023-05-07T00:54:49;14.90;99.90
8715;DHT22;4394;51.208;8.904;2023-05-07T00:57:37;14.90;99.90
8715;DHT22;4394;51.208;8.904;2023-05-07T01:00:27;14.80;99.90
8715;DHT22;4394;51.208;8.904;2023-05-07T01:03:16;14.80;99.90
8715;DHT22;4394;51.208;8.904;2023-05-07T01:06:06;14.80;99.90
8715;DHT22;4394;51.208;8.904;2023-05-07T01:08:55;14.80;99.90
8715;DHT22;4394;51.208;8.904;2023-05-07T01:11:44;14.70;99.90
8715;DHT22;4394;51.208;8.904;2023-05-07T01:14:32;14.70;99.90
8715;DHT22;4394;51.208;8.904;2023-05-07T01:17:20;14.70;99.90
8715;DHT22;4394;51.208;8.904;2023-05-07T01:20:11;14.70;99.90
8715;DHT22;4394;51.208;8.904;2023-05-07T01:23:01;14.70;99.90
8715;DHT22;4394;51.208;8.904;2023-05-07T01:25:53;14.70;99.90
8715;DHT22;4394;51.208;8.904;2023-05-07T01:28:41;14.70;99.90
8715;DHT22;4394;51.208;8.904;2023-05-07T01:31:29;14.70;99.90
8715;DHT22;4394;51.208;8.904;2023-05-07T01:34:18;14.60;99.90
8715;DHT22;4394;51.208;8.904;2023-05-07T01:37:09;14.60;99.90
8715;DHT22;4394;51.208;8.904;2023-05-07T01:39:58;14.50;99.90
8715;DHT22;4394;51.208;8.904;2023-05-07T01:42:47;14.50;99.90
8715;DHT22;4394;51.208;8.904;2023-05-07T01:45:36;14.40;99.90
8715;DHT22;4394;51.208;8.904;2023-05-07T01:48:24;14.40;99.90
8715;DHT22;4394;51.208;8.904;2023-05-07T01:51:12;14.40;99.90
8715;DHT22;4394;51.208;8.904;2023-05-07T01:54:00;14.40;99.90
8715;DHT22;4394;51.208;8.904;2023-05-07T01:56:50;14.40;99.90
8715;DHT22;4394;51.208;8.904;2023-05-07T01:59:38;14.40;99.90
8715;DHT22;4394;51.208;8.904;2023-05-07T02:02:26;14.30;99.90
8715;DHT22;4394;51.208;8.904;2023-05-07T02:05:14;14.30;99.90
8715;DHT22;4394;51.208;8.904;2023-05-07T02:08:02;14.20;99.90
8715;DHT22;4394;51.208;8.904;2023-05-07T02:10:50;14.20;99.90
8715;DHT22;4394;51.208;8.904;2023-05-07T02:13:40;14.20;99.90
8715;DHT22;4394;51.208;8.904;2023-05-07T02:16:28;14.30;99.90
8715;DHT22;4394;51.208;8.904;2023-05-07T02:19:16;14.30;99.90
8715;DHT22;4394;51.208;8.904;2023-05-07T02:22:04;14.40;99.90
8715;DHT22;4394;51.208;8.904;2023-05-07T02:24:53;14.40;99.90
8715;DHT22;4394;51.208;8.904;2023-05-07T02:27:41;14.40;99.90
8715;DHT22;4394;51.208;8.904;2023-05-07T02:30:31;14.40;99.90
8715;DHT22;4394;51.208;8.904;2023-05-07T02:33:19;14.40;99.90
8715;DHT22;4394;51.208;8.904;2023-05-07T02:36:08;14.30;99.90
8715;DHT22;4394;51.208;8.904;2023-05-07T02:38:56;14.30;99.90
8715;DHT22;4394;51.208;8.904;2023-05-07T02:41:44;14.30;99.90
8715;DHT22;4394;51.208;8.904;2023-05-07T02:44:32;14.20;99.90
8715;DHT22;4394;51.208;8.904;2023-05-07T02:47:24;14.30;99.90
8715;DHT22;4394;51.208;8.904;2023-05-07T02:50:13;14.20;99.90
8715;DHT22;4394;51.208;8.904;2023-05-07T02:53:01;14.10;99.90
8715;DHT22;4394;51.208;8.904;2023-05-07T02:55:50;14.10;99.90
8715;DHT22;4394;51.208;8.904;2023-05-07T02:58:38;14.10;99.90
8715;DHT22;4394;51.208;8.904;2023-05-07T03:01:26;14.10;99.90
8715;DHT22;4394;51.208;8.904;2023-05-07T03:04:15;14.10;99.90
8715;DHT22;4394;51.208;8.904;2023-05-07T03:07:04;14.10;99.90
8715;DHT22;4394;51.208;8.904;2023-05-07T03:09:52;14.10;99.90
8715;DHT22;4394;51.208;8.904;2023-05-07T03:12:40;14.10;99.90
8715;DHT22;4394;51.208;8.904;2023-05-07T03:15:28;14.00;99.90
8715;DHT22;4394;51.208;8.904;2023-05-07T03:18:16;14.00;99.90
8715;DHT22;4394;51.208;8.904;2023-05-07T03:21:06;14.00;99.90
8715;DHT22;4394;51.208;8.904;2023-05-07T03:23:54;14.00;99.90
8715;DHT22;4394;51.208;8.904;2023-05-07T03:26:42;13.90;99.90
8715;DHT22;4394;51.208;8.904;2023-05-07T03:29:30;13.90;99.90
8715;DHT22;4394;51.208;8.904;2023-05-07T03:32:18;13.90;99.90
8715;DHT22;4394;51.208;8.904;2023-05-07T03:35:06;14.00;99.90
8715;DHT22;4394;51.208;8.904;2023-05-07T03:37:56;14.00;99.90
8715;DHT22;4394;51.208;8.904;2023-05-07T03:40:44;14.00;99.90
8715;DHT22;4394;51.208;8.904;2023-05-07T03:43:32;13.90;99.90
8715;DHT22;4394;51.208;8.904;2023-05-07T03:46:20;13.90;99.90
8715;DHT22;4394;51.208;8.904;2023-05-07T03:49:08;13.90;99.90
8715;DHT22;4394;51.208;8.904;2023-05-07T03:51:56;13.90;99.90
8715;DHT22;4394;51.208;8.904;2023-05-07T03:54:45;13.90;99.90
8715;DHT22;4394;51.208;8.904;2023-05-07T03:57:33;13.80;99.90
8715;DHT22;4394;51.208;8.904;2023-05-07T04:00:22;13.80;99.90
8715;DHT22;4394;51.208;8.904;2023-05-07T04:03:10;13.80;99.90
8715;DHT22;4394;51.208;8.904;2023-05-07T04:05:58;13.80;99.90
8715;DHT22;4394;51.208;8.904;2023-05-07T04:08:46;13.90;99.90
8715;DHT22;4394;51.208;8.904;2023-05-07T04:11:36;13.70;99.90
8715;DHT22;4394;51.208;8.904;2023-05-07T04:14:24;13.70;99.90
8715;DHT22;4394;51.208;8.904;2023-05-07T04:17:12;13.80;99.90
8715;DHT22;4394;51.208;8.904;2023-05-07T04:20:00;13.80;99.90
8715;DHT22;4394;51.208;8.904;2023-05-07T04:22:48;13.80;99.90
8715;DHT22;4394;51.208;8.904;2023-05-07T04:25:36;13.80;99.90
8715;DHT22;4394;51.208;8.904;2023-05-07T04:28:26;13.80;99.90
8715;DHT22;4394;51.208;8.904;2023-05-07T04:31:14;13.80;99.90
8715;DHT22;4394;51.208;8.904;2023-05-07T04:34:03;13.70;99.90
8715;DHT22;4394;51.208;8.904;2023-05-07T04:36:51;13.80;99.90
8715;DHT22;4394;51.208;8.904;2023-05-07T04:39:39;13.80;99.90
8715;DHT22;4394;51.208;8.904;2023-05-07T04:42:27;13.70;99.90
8715;DHT22;4394;51.208;8.904;2023-05-07T04:45:17;13.80;99.90
8715;DHT22;4394;51.208;8.904;2023-05-07T04:48:05;13.80;99.90
8715;DHT22;4394;51.208;8.904;2023-05-07T04:50:53;13.70;99.90
8715;DHT22;4394;51.208;8.904;2023-05-07T04:53:41;13.70;99.90
8715;DHT22;4394;51.208;8.904;2023-05-07T04:56:30;13.70;99.90
8715;DHT22;4394;51.208;8.904;2023-05-07T04:59:18;13.70;99.90
8715;DHT22;4394;51.208;8.904;2023-05-07T05:02:07;13.70;99.90
8715;DHT22;4394;51.208;8.904;2023-05-07T05:04:55;13.80;99.90
8715;DHT22;4394;51.208;8.904;2023-05-07T05:07:43;13.70;99.90
8715;DHT22;4394;51.208;8.904;2023-05-07T05:10:31;13.80;99.90
8715;DHT22;4394;51.208;8.904;2023-05-07T05:13:19;13.80;99.90
8715;DHT22;4394;51.208;8.904;2023-05-07T05:16:08;13.80;99.90
8715;DHT22;4394;51.208;8.904;2023-05-07T05:18:57;13.80;99.90
8715;DHT22;4394;51.208;8.904;2023-05-07T05:21:45;13.80;99.90
8715;DHT22;4394;51.208;8.904;2023-05-07T05:24:34;13.70;99.90
8715;DHT22;4394;51.208;8.904;2023-05-07T05:27:22;13.70;99.90
8715;DHT22;4394;51.208;8.904;2023-05-07T05:30:10;13.70;99.90
8715;DHT22;4394;51.208;8.904;2023-05-07T05:32:59;13.70;99.90
8715;DHT22;4394;51.208;8.904;2023-05-07T05:35:49;13.80;99.90
8715;DHT22;4394;51.208;8.904;2023-05-07T05:38:37;13.70;99.90
8715;DHT22;4394;51.208;8.904;2023-05-07T05:41:25;13.80;99.90
8715;DHT22;4394;51.208;8.904;2023-05-07T05:44:13;13.70;99.90
8715;DHT22;4394;51.208;8.904;2023-05-07T05:47:02;13.70;99.90
8715;DHT22;4394;51.208;8.904;2023-05-07T05:49:50;13.80;99.90
8715;DHT22;4394;51.208;8.904;2023-05-07T05:52:39;13.70;99.90
8715;DHT22;4394;51.208;8.904;2023-05-07T05:55:28;13.70;99.90
8715;DHT22;4394;51.208;8.904;2023-05-07T05:58:16;13.70;99.90
8715;DHT22;4394;51.208;8.904;2023-05-07T06:01:05;13.70;99.90
8715;DHT22;4394;51.208;8.904;2023-05-07T06:03:53;13.70;99.90
8715;DHT22;4394;51.208;8.904;2023-05-07T06:06:41;13.70;99.90
8715;DHT22;4394;51.208;8.904;2023-05-07T06:09:30;13.70;99.90
8715;DHT22;4394;51.208;8.904;2023-05-07T06:12:18;13.80;99.90
8715;DHT22;4394;51.208;8.904;2023-05-07T06:15:07;13.70;99.90
8715;DHT22;4394;51.208;8.904;2023-05-07T06:17:55;13.70;99.90
8715;DHT22;4394;51.208;8.904;2023-05-07T06:20:44;13.70;99.90
8715;DHT22;4394;51.208;8.904;2023-05-07T06:23:32;13.70;99.90
8715;DHT22;4394;51.208;8.904;2023-05-07T06:26:21;13.80;99.90
8715;DHT22;4394;51.208;8.904;2023-05-07T06:29:09;13.80;99.90
8715;DHT22;4394;51.208;8.904;2023-05-07T06:32:06;13.80;99.90
8715;DHT22;4394;51.208;8.904;2023-05-07T06:34:54;13.90;99.90
8715;DHT22;4394;51.208;8.904;2023-05-07T06:37:42;13.80;99.90
8715;DHT22;4394;51.208;8.904;2023-05-07T06:40:30;13.80;99.90
8715;DHT22;4394;51.208;8.904;2023-05-07T06:43:19;13.90;99.90
8715;DHT22;4394;51.208;8.904;2023-05-07T06:46:07;13.80;99.90
8715;DHT22;4394;51.208;8.904;2023-05-07T06:48:55;13.80;99.90
8715;DHT22;4394;51.208;8.904;2023-05-07T06:51:44;13.90;99.90
8715;DHT22;4394;51.208;8.904;2023-05-07T06:54:32;13.80;99.90
8715;DHT22;4394;51.208;8.904;2023-05-07T06:57:20;13.80;99.90
8715;DHT22;4394;51.208;8.904;2023-05-07T07:00:10;13.90;99.90
8715;DHT22;4394;51.208;8.904;2023-05-07T07:02:59;13.90;99.90
8715;DHT22;4394;51.208;8.904;2023-05-07T07:05:47;13.90;99.90
8715;DHT22;4394;51.208;8.904;2023-05-07T07:08:35;14.00;99.90
8715;DHT22;4394;51.208;8.904;2023-05-07T07:11:25;14.00;99.90
8715;DHT22;4394;51.208;8.904;2023-05-07T07:14:13;14.00;99.90
8715;DHT22;4394;51.208;8.904;2023-05-07T07:17:03;13.90;99.90
8715;DHT22;4394;51.208;8.904;2023-05-07T07:19:52;14.00;99.90
8715;DHT22;4394;51.208;8.904;2023-05-07T07:22:39;14.00;99.90
8715;DHT22;4394;51.208;8.904;2023-05-07T07:25:28;14.00;99.90
8715;DHT22;4394;51.208;8.904;2023-05-07T07:28:16;14.00;99.90
8715;DHT22;4394;51.208;8.904;2023-05-07T07:31:04;14.00;99.90
8715;DHT22;4394;51.208;8.904;2023-05-07T07:33:54;14.00;99.90
8715;DHT22;4394;51.208;8.904;2023-05-07T07:36:42;14.10;99.90
8715;DHT22;4394;51.208;8.904;2023-05-07T07:39:33;14.10;99.90
8715;DHT22;4394;51.208;8.904;2023-05-07T07:42:21;14.20;99.90
8715;DHT22;4394;51.208;8.904;2023-05-07T07:45:10;14.20;99.90
8715;DHT22;4394;51.208;8.904;2023-05-07T07:47:58;14.10;99.90
8715;DHT22;4394;51.208;8.904;2023-05-07T07:50:50;14.10;99.90
8715;DHT22;4394;51.208;8.904;2023-05-07T07:53:38;14.20;99.90
8715;DHT22;4394;51.208;8.904;2023-05-07T07:56:27;14.10;99.90
8715;DHT22;4394;51.208;8.904;2023-05-07T07:59:15;14.20;99.90
8715;DHT22;4394;51.208;8.904;2023-05-07T08:02:05;14.20;99.90
8715;DHT22;4394;51.208;8.904;2023-05-07T08:04:53;14.20;99.90
8715;DHT22;4394;51.208;8.904;2023-05-07T08:07:43;14.20;99.90
8715;DHT22;4394;51.208;8.904;2023-05-07T08:10:33;14.20;99.90
8715;DHT22;4394;51.208;8.904;2023-05-07T08:13:24;14.30;99.90
8715;DHT22;4394;51.208;8.904;2023-05-07T08:16:13;14.30;99.90
8715;DHT22;4394;51.208;8.904;2023-05-07T08:19:01;14.30;99.90
8715;DHT22;4394;51.208;8.904;2023-05-07T08:21:49;14.40;99.90
8715;DHT22;4394;51.208;8.904;2023-05-07T08:24:39;14.50;99.90
8715;DHT22;4394;51.208;8.904;2023-05-07T08:27:27;14.60;99.90
8715;DHT22;4394;51.208;8.904;2023-05-07T08:30:15;14.60;99.90
8715;DHT22;4394;51.208;8.904;2023-05-07T08:33:04;14.60;99.90
8715;DHT22;4394;51.208;8.904;2023-05-07T08:35:52;14.70;99.90
8715;DHT22;4394;51.208;8.904;2023-05-07T08:38:40;14.70;99.90
8715;DHT22;4394;51.208;8.904;2023-05-07T08:41:31;14.80;99.90
8715;DHT22;4394;51.208;8.904;2023-05-07T08:44:22;14.80;99.90
8715;DHT22;4394;51.208;8.904;2023-05-07T08:47:10;14.80;99.90
8715;DHT22;4394;51.208;8.904;2023-05-07T08:49:58;14.80;99.90
8715;DHT22;4394;51.208;8.904;2023-05-07T08:52:47;14.90;99.90
8715;DHT22;4394;51.208;8.904;2023-05-07T08:55:35;15.00;99.90
8715;DHT22;4394;51.208;8.904;2023-05-07T08:58:25;15.10;99.90
8715;DHT22;4394;51.208;8.904;2023-05-07T09:01:15;15.20;99.90
8715;DHT22;4394;51.208;8.904;2023-05-07T09:04:04;15.30;99.90
8715;DHT22;4394;51.208;8.904;2023-05-07T09:06:52;15.40;99.90
8715;DHT22;4394;51.208;8.904;2023-05-07T09:09:40;15.50;99.90
8715;DHT22;4394;51.208;8.904;2023-05-07T09:12:28;15.50;99.90
8715;DHT22;4394;51.208;8.904;2023-05-07T09:15:17;15.60;99.90
8715;DHT22;4394;51.208;8.904;2023-05-07T09:18:05;15.80;99.90
8715;DHT22;4394;51.208;8.904;2023-05-07T09:20:55;15.90;99.90
8715;DHT22;4394;51.208;8.904;2023-05-07T09:23:43;16.00;99.90
8715;DHT22;4394;51.208;8.904;2023-05-07T09:26:31;16.10;99.90
8715;DHT22;4394;51.208;8.904;2023-05-07T09:29:20;16.30;99.90
8715;DHT22;4394;51.208;8.904;2023-05-07T09:32:10;16.30;99.90
8715;DHT22;4394;51.208;8.904;2023-05-07T09:34:58;16.40;99.90
8715;DHT22;4394;51.208;8.904;2023-05-07T09:37:46;16.50;99.90
8715;DHT22;4394;51.208;8.904;2023-05-07T09:40:35;16.50;99.90
8715;DHT22;4394;51.208;8.904;2023-05-07T09:43:23;16.60;99.90
8715;DHT22;4394;51.208;8.904;2023-05-07T09:46:13;16.80;99.90
8715;DHT22;4394;51.208;8.904;2023-05-07T09:49:02;16.90;99.90
8715;DHT22;4394;51.208;8.904;2023-05-07T09:51:53;16.90;99.90
8715;DHT22;4394;51.208;8.904;2023-05-07T09:54:43;17.10;99.90
8715;DHT22;4394;51.208;8.904;2023-05-07T09:57:34;17.20;99.90
8715;DHT22;4394;51.208;8.904;2023-05-07T10:00:22;17.30;99.90
8715;DHT22;4394;51.208;8.904;2023-05-07T10:03:10;17.40;99.90
8715;DHT22;4394;51.208;8.904;2023-05-07T10:06:01;17.50;99.90
8715;DHT22;4394;51.208;8.904;2023-05-07T10:08:51;17.70;99.90
8715;DHT22;4394;51.208;8.904;2023-05-07T10:11:39;17.80;99.90
8715;DHT22;4394;51.208;8.904;2023-05-07T10:14:28;17.90;99.90
8715;DHT22;4394;51.208;8.904;2023-05-07T10:17:16;18.10;99.90
8715;DHT22;4394;51.208;8.904;2023-05-07T10:20:06;18.10;99.90
8715;DHT22;4394;51.208;8.904;2023-05-07T10:22:57;18.30;99.90
8715;DHT22;4394;51.208;8.904;2023-05-07T10:25:46;18.40;99.90
8715;DHT22;4394;51.208;8.904;2023-05-07T10:28:37;18.70;99.90
8715;DHT22;4394;51.208;8.904;2023-05-07T10:31:48;18.80;99.90
8715;DHT22;4394;51.208;8.904;2023-05-07T10:34:42;18.90;99.90
8715;DHT22;4394;51.208;8.904;2023-05-07T10:37:31;18.90;99.90
8715;DHT22;4394;51.208;8.904;2023-05-07T10:40:21;19.10;99.90
8715;DHT22;4394;51.208;8.904;2023-05-07T10:43:09;19.20;99.90
8715;DHT22;4394;51.208;8.904;2023-05-07T10:46:10;19.30;99.90
8715;DHT22;4394;51.208;8.904;2023-05-07T10:49:09;19.30;99.90
8715;DHT22;4394;51.208;8.904;2023-05-07T10:52:12;19.40;99.90
8715;DHT22;4394;51.208;8.904;2023-05-07T10:55:20;19.50;99.90
8715;DHT22;4394;51.208;8.904;2023-05-07T10:58:24;19.50;99.90
8715;DHT22;4394;51.208;8.904;2023-05-07T11:01:49;19.50;99.90
8715;DHT22;4394;51.208;8.904;2023-05-07T11:04:38;19.60;99.90
8715;DHT22;4394;51.208;8.904;2023-05-07T11:07:28;19.60;99.90
8715;DHT22;4394;51.208;8.904;2023-05-07T11:10:17;19.50;99.90
8715;DHT22;4394;51.208;8.904;2023-05-07T11:13:06;19.60;99.90
8715;DHT22;4394;51.208;8.904;2023-05-07T11:15:54;19.60;99.90
8715;DHT22;4394;51.208;8.904;2023-05-07T11:18:47;19.60;99.90
8715;DHT22;4394;51.208;8.904;2023-05-07T11:21:36;19.70;99.90
8715;DHT22;4394;51.208;8.904;2023-05-07T11:24:25;19.80;99.90
8715;DHT22;4394;51.208;8.904;2023-05-07T11:27:13;19.80;99.90
8715;DHT22;4394;51.208;8.904;2023-05-07T11:30:03;19.70;99.90
8715;DHT22;4394;51.208;8.904;2023-05-07T11:32:52;19.70;99.90
8715;DHT22;4394;51.208;8.904;2023-05-07T11:35:42;19.60;99.90
8715;DHT22;4394;51.208;8.904;2023-05-07T11:38:30;19.70;99.90
8715;DHT22;4394;51.208;8.904;2023-05-07T11:41:22;19.70;99.90
8715;DHT22;4394;51.208;8.904;2023-05-07T11:44:10;19.70;99.90
8715;DHT22;4394;51.208;8.904;2023-05-07T11:46:59;19.80;99.90
8715;DHT22;4394;51.208;8.904;2023-05-07T11:49:49;19.80;99.90
8715;DHT22;4394;51.208;8.904;2023-05-07T11:52:38;19.80;99.90
8715;DHT22;4394;51.208;8.904;2023-05-07T11:55:26;19.80;99.90
8715;DHT22;4394;51.208;8.904;2023-05-07T11:58:21;19.80;99.90
8715;DHT22;4394;51.208;8.904;2023-05-07T12:01:11;19.90;99.90
8715;DHT22;4394;51.208;8.904;2023-05-07T12:04:03;19.90;99.90
8715;DHT22;4394;51.208;8.904;2023-05-07T12:06:54;20.00;99.90
8715;DHT22;4394;51.208;8.904;2023-05-07T12:09:43;20.00;99.90
8715;DHT22;4394;51.208;8.904;2023-05-07T12:12:31;20.20;99.90
8715;DHT22;4394;51.208;8.904;2023-05-07T12:15:25;20.20;99.90
8715;DHT22;4394;51.208;8.904;2023-05-07T12:18:13;20.40;99.90
8715;DHT22;4394;51.208;8.904;2023-05-07T12:21:04;20.40;99.90
8715;DHT22;4394;51.208;8.904;2023-05-07T12:23:53;20.40;99.90
8715;DHT22;4394;51.208;8.904;2023-05-07T12:26:41;20.50;99.90
8715;DHT22;4394;51.208;8.904;2023-05-07T12:29:29;20.60;99.90
8715;DHT22;4394;51.208;8.904;2023-05-07T12:32:18;20.60;99.90
8715;DHT22;4394;51.208;8.904;2023-05-07T12:35:08;20.60;99.90
8715;DHT22;4394;51.208;8.904;2023-05-07T12:37:58;20.70;99.90
8715;DHT22;4394;51.208;8.904;2023-05-07T12:40:53;20.70;99.90
8715;DHT22;4394;51.208;8.904;2023-05-07T12:43:44;20.80;99.90
8715;DHT22;4394;51.208;8.904;2023-05-07T12:46:32;20.90;99.90
8715;DHT22;4394;51.208;8.904;2023-05-07T12:49:26;20.90;99.90
8715;DHT22;4394;51.208;8.904;2023-05-07T12:52:14;21.00;99.90
8715;DHT22;4394;51.208;8.904;2023-05-07T12:55:07;21.10;99.90
8715;DHT22;4394;51.208;8.904;2023-05-07T12:57:55;21.10;99.90
8715;DHT22;4394;51.208;8.904;2023-05-07T13:00:44;21.20;99.90
8715;DHT22;4394;51.208;8.904;2023-05-07T13:03:34;21.30;99.90
8715;DHT22;4394;51.208;8.904;2023-05-07T13:06:22;21.40;99.90
8715;DHT22;4394;51.208;8.904;2023-05-07T13:09:10;21.40;99.90
8715;DHT22;4394;51.208;8.904;2023-05-07T13:11:59;21.50;99.90
8715;DHT22;4394;51.208;8.904;2023-05-07T13:14:48;21.60;99.90
8715;DHT22;4394;51.208;8.904;2023-05-07T13:17:36;21.70;99.90
8715;DHT22;4394;51.208;8.904;2023-05-07T13:20:24;21.80;99.90
8715;DHT22;4394;51.208;8.904;2023-05-07T13:23:12;21.90;99.90
8715;DHT22;4394;51.208;8.904;2023-05-07T13:26:00;22.00;99.90
8715;DHT22;4394;51.208;8.904;2023-05-07T13:28:55;22.10;99.90
8715;DHT22;4394;51.208;8.904;2023-05-07T13:31:43;22.20;99.90
8715;DHT22;4394;51.208;8.904;2023-05-07T13:34:34;22.20;99.90
8715;DHT22;4394;51.208;8.904;2023-05-07T13:37:21;22.20;99.90
8715;DHT22;4394;51.208;8.904;2023-05-07T13:40:10;22.20;99.90
8715;DHT22;4394;51.208;8.904;2023-05-07T13:42:59;22.20;99.90
8715;DHT22;4394;51.208;8.904;2023-05-07T13:45:50;22.30;99.90
8715;DHT22;4394;51.208;8.904;2023-05-07T13:48:38;22.30;99.90
8715;DHT22;4394;51.208;8.904;2023-05-07T13:51:26;22.30;99.90
8715;DHT22;4394;51.208;8.904;2023-05-07T13:54:14;22.40;99.90
8715;DHT22;4394;51.208;8.904;2023-05-07T13:57:02;22.50;99.90
8715;DHT22;4394;51.208;8.904;2023-05-07T13:59:50;22.50;99.90
8715;DHT22;4394;51.208;8.904;2023-05-07T14:02:40;22.40;99.90
8715;DHT22;4394;51.208;8.904;2023-05-07T14:05:28;22.40;99.90
8715;DHT22;4394;51.208;8.904;2023-05-07T14:08:16;22.30;99.90
8715;DHT22;4394;51.208;8.904;2023-05-07T14:11:06;22.10;99.90
8715;DHT22;4394;51.208;8.904;2023-05-07T14:13:54;22.10;99.90
8715;DHT22;4394;51.208;8.904;2023-05-07T14:16:43;22.00;99.90
8715;DHT22;4394;51.208;8.904;2023-05-07T14:19:33;21.90;99.90
8715;DHT22;4394;51.208;8.904;2023-05-07T14:22:21;21.90;99.90
8715;DHT22;4394;51.208;8.904;2023-05-07T14:25:10;21.90;99.90
8715;DHT22;4394;51.208;8.904;2023-05-07T14:27:58;21.80;99.90
8715;DHT22;4394;51.208;8.904;2023-05-07T14:30:46;21.80;99.90
8715;DHT22;4394;51.208;8.904;2023-05-07T14:33:34;21.70;99.90
8715;DHT22;4394;51.208;8.904;2023-05-07T14:36:23;21.70;99.90
8715;DHT22;4394;51.208;8.904;2023-05-07T14:39:13;21.70;99.90
8715;DHT22;4394;51.208;8.904;2023-05-07T14:42:01;21.70;99.90
8715;DHT22;4394;51.208;8.904;2023-05-07T14:44:49;21.60;99.90
8715;DHT22;4394;51.208;8.904;2023-05-07T14:47:37;21.60;99.90
8715;DHT22;4394;51.208;8.904;2023-05-07T14:50:25;21.50;99.90
8715;DHT22;4394;51.208;8.904;2023-05-07T14:53:15;21.50;99.90
8715;DHT22;4394;51.208;8.904;2023-05-07T14:56:03;21.50;99.90
8715;DHT22;4394;51.208;8.904;2023-05-07T14:58:52;21.40;99.90
8715;DHT22;4394;51.208;8.904;2023-05-07T15:01:40;21.30;99.90
8715;DHT22;4394;51.208;8.904;2023-05-07T15:04:32;21.30;99.90
8715;DHT22;4394;51.208;8.904;2023-05-07T15:07:20;21.30;99.90
8715;DHT22;4394;51.208;8.904;2023-05-07T15:10:09;21.20;99.90
8715;DHT22;4394;51.208;8.904;2023-05-07T15:12:57;21.20;99.90
8715;DHT22;4394;51.208;8.904;2023-05-07T15:15:46;21.10;99.90
8715;DHT22;4394;51.208;8.904;2023-05-07T15:18:34;21.10;99.90
8715;DHT22;4394;51.208;8.904;2023-05-07T15:21:22;21.00;99.90
8715;DHT22;4394;51.208;8.904;2023-05-07T15:24:10;20.80;99.90
8715;DHT22;4394;51.208;8.904;2023-05-07T15:26:59;20.90;99.90
8715;DHT22;4394;51.208;8.904;2023-05-07T15:29:47;20.90;99.90
8715;DHT22;4394;51.208;8.904;2023-05-07T15:32:35;20.80;99.90
8715;DHT22;4394;51.208;8.904;2023-05-07T15:35:24;20.80;99.90
8715;DHT22;4394;51.208;8.904;2023-05-07T15:38:12;20.80;99.90
8715;DHT22;4394;51.208;8.904;2023-05-07T15:41:00;20.70;99.90
8715;DHT22;4394;51.208;8.904;2023-05-07T15:43:52;20.70;99.90
8715;DHT22;4394;51.208;8.904;2023-05-07T15:46:41;20.70;99.90
8715;DHT22;4394;51.208;8.904;2023-05-07T15:49:29;20.60;99.90
8715;DHT22;4394;51.208;8.904;2023-05-07T15:52:17;20.60;99.90
8715;DHT22;4394;51.208;8.904;2023-05-07T15:55:07;20.60;99.90
8715;DHT22;4394;51.208;8.904;2023-05-07T15:57:56;20.60;99.90
8715;DHT22;4394;51.208;8.904;2023-05-07T16:00:45;20.60;99.90
8715;DHT22;4394;51.208;8.904;2023-05-07T16:03:33;20.50;99.90
8715;DHT22;4394;51.208;8.904;2023-05-07T16:06:22;20.50;99.90
8715;DHT22;4394;51.208;8.904;2023-05-07T16:09:10;20.50;99.90
8715;DHT22;4394;51.208;8.904;2023-05-07T16:11:58;20.50;99.90
8715;DHT22;4394;51.208;8.904;2023-05-07T16:14:46;20.60;99.90
8715;DHT22;4394;51.208;8.904;2023-05-07T16:17:36;20.50;99.90
8715;DHT22;4394;51.208;8.904;2023-05-07T16:20:26;20.40;99.90
8715;DHT22;4394;51.208;8.904;2023-05-07T16:23:15;20.30;99.90
8715;DHT22;4394;51.208;8.904;2023-05-07T16:26:03;20.20;99.90
8715;DHT22;4394;51.208;8.904;2023-05-07T16:28:51;20.00;99.90
8715;DHT22;4394;51.208;8.904;2023-05-07T16:31:40;19.90;99.90
8715;DHT22;4394;51.208;8.904;2023-05-07T16:34:29;19.80;99.90
8715;DHT22;4394;51.208;8.904;2023-05-07T16:37:18;19.70;99.90
8715;DHT22;4394;51.208;8.904;2023-05-07T16:40:08;19.60;99.90
8715;DHT22;4394;51.208;8.904;2023-05-07T16:42:56;19.60;99.90
8715;DHT22;4394;51.208;8.904;2023-05-07T16:45:44;19.50;99.90
8715;DHT22;4394;51.208;8.904;2023-05-07T16:48:32;19.40;99.90
8715;DHT22;4394;51.208;8.904;2023-05-07T16:51:21;19.40;99.90
8715;DHT22;4394;51.208;8.904;2023-05-07T16:54:10;19.30;99.90
8715;DHT22;4394;51.208;8.904;2023-05-07T16:56:58;19.20;99.90
8715;DHT22;4394;51.208;8.904;2023-05-07T16:59:46;19.20;99.90
8715;DHT22;4394;51.208;8.904;2023-05-07T17:02:35;19.10;99.90
8715;DHT22;4394;51.208;8.904;2023-05-07T17:05:23;19.10;99.90
8715;DHT22;4394;51.208;8.904;2023-05-07T17:08:12;19.00;99.90
8715;DHT22;4394;51.208;8.904;2023-05-07T17:11:00;19.00;99.90
8715;DHT22;4394;51.208;8.904;2023-05-07T17:13:49;18.90;99.90
8715;DHT22;4394;51.208;8.904;2023-05-07T17:16:37;18.80;99.90
8715;DHT22;4394;51.208;8.904;2023-05-07T17:19:25;18.70;99.90
8715;DHT22;4394;51.208;8.904;2023-05-07T17:22:13;18.70;99.90
8715;DHT22;4394;51.208;8.904;2023-05-07T17:25:03;18.60;99.90
8715;DHT22;4394;51.208;8.904;2023-05-07T17:27:51;18.60;99.90
8715;DHT22;4394;51.208;8.904;2023-05-07T17:30:39;18.50;99.90
8715;DHT22;4394;51.208;8.904;2023-05-07T17:33:27;18.50;99.90
8715;DHT22;4394;51.208;8.904;2023-05-07T17:36:15;18.40;99.90
8715;DHT22;4394;51.208;8.904;2023-05-07T17:39:04;18.30;99.90
8715;DHT22;4394;51.208;8.904;2023-05-07T17:41:54;18.30;99.90
8715;DHT22;4394;51.208;8.904;2023-05-07T17:44:42;18.30;99.90
8715;DHT22;4394;51.208;8.904;2023-05-07T17:47:31;18.20;99.90
8715;DHT22;4394;51.208;8.904;2023-05-07T17:50:19;18.10;99.90
8715;DHT22;4394;51.208;8.904;2023-05-07T17:53:07;18.10;99.90
8715;DHT22;4394;51.208;8.904;2023-05-07T17:55:55;18.00;99.90
8715;DHT22;4394;51.208;8.904;2023-05-07T17:58:45;17.90;99.90
8715;DHT22;4394;51.208;8.904;2023-05-07T18:01:45;17.90;99.90
8715;DHT22;4394;51.208;8.904;2023-05-07T18:04:33;17.80;99.90
8715;DHT22;4394;51.208;8.904;2023-05-07T18:07:21;17.80;99.90
8715;DHT22;4394;51.208;8.904;2023-05-07T18:10:10;17.70;99.90
8715;DHT22;4394;51.208;8.904;2023-05-07T18:12:58;17.60;99.90
8715;DHT22;4394;51.208;8.904;2023-05-07T18:15:48;17.50;99.90
8715;DHT22;4394;51.208;8.904;2023-05-07T18:18:37;17.50;99.90
8715;DHT22;4394;51.208;8.904;2023-05-07T18:21:25;17.40;99.90
8715;DHT22;4394;51.208;8.904;2023-05-07T18:24:13;17.30;99.90